EVA851 RPLL-RCTP
Flight info
| Callsign | EVA851 |
|---|---|
| Flight time | N/A |
| Altitude | 36000 |
| Route | ALPAS2R ALPAS M646 SANRO/N0449F390 M646 POTIB Q14 TNN TNN1A |
| Aircraft | A20N/M-SDE2E3FGHIRWXY/LB1 |
Departure
| Time | 2026-05-07 03:12 |
|---|---|
| Airport | Ninoy Aquino International Airport (RPLL) |
Arrival
| Time | N/A |
|---|---|
| Airport | Taiwan Taoyuan International Airport (RCTP) |
| Time | Latitude | Longitude | Altitude | Speed | Heading |
|---|---|---|---|---|---|
| 2026-05-07 02:43 | 14.50476 | 121.00657 | 65 ft | 0 kts | 1° |
| 2026-05-07 02:58 | 14.50475 | 121.00657 | 65 ft | 1 kts | 1° |
| 2026-05-07 02:58 | 14.50467 | 121.00657 | 65 ft | 1 kts | 1° |
| 2026-05-07 02:58 | 14.50459 | 121.00657 | 57 ft | 1 kts | 4° |
| 2026-05-07 02:58 | 14.50452 | 121.00656 | 59 ft | 1 kts | 14° |
| 2026-05-07 02:59 | 14.50444 | 121.00654 | 61 ft | 1 kts | 19° |
| 2026-05-07 02:59 | 14.50437 | 121.00651 | 61 ft | 1 kts | 17° |
| 2026-05-07 02:59 | 14.50429 | 121.00649 | 62 ft | 1 kts | 0° |
| 2026-05-07 02:59 | 14.50422 | 121.00650 | 57 ft | 1 kts | 348° |
| 2026-05-07 03:00 | 14.50414 | 121.00651 | 59 ft | 1 kts | 342° |
| 2026-05-07 03:00 | 14.50407 | 121.00654 | 58 ft | 1 kts | 332° |
| 2026-05-07 03:00 | 14.50400 | 121.00658 | 59 ft | 1 kts | 309° |
| 2026-05-07 03:00 | 14.50395 | 121.00665 | 58 ft | 1 kts | 289° |
| 2026-05-07 03:01 | 14.50393 | 121.00672 | 60 ft | 1 kts | 271° |
| 2026-05-07 03:01 | 14.50393 | 121.00680 | 60 ft | 1 kts | 251° |
| 2026-05-07 03:01 | 14.50395 | 121.00686 | 58 ft | 1 kts | 247° |
| 2026-05-07 03:01 | 14.50396 | 121.00687 | 58 ft | 0 kts | 246° |
| 2026-05-07 03:04 | 14.50386 | 121.00665 | 59 ft | 11 kts | 244° |
| 2026-05-07 03:04 | 14.50315 | 121.00535 | 67 ft | 13 kts | 236° |
| 2026-05-07 03:04 | 14.50307 | 121.00523 | 67 ft | 7 kts | 236° |
| 2026-05-07 03:05 | 14.50259 | 121.00434 | 71 ft | 21 kts | 244° |
| 2026-05-07 03:05 | 14.50231 | 121.00384 | 68 ft | 11 kts | 239° |
| 2026-05-07 03:05 | 14.50183 | 121.00335 | 62 ft | 0 kts | 197° |
| 2026-05-07 03:05 | 14.50138 | 121.00333 | 68 ft | 12 kts | 193° |
| 2026-05-07 03:06 | 14.50076 | 121.00249 | 76 ft | 20 kts | 237° |
| 2026-05-07 03:06 | 14.50022 | 121.00151 | 76 ft | 1 kts | 240° |
| 2026-05-07 03:06 | 14.49979 | 121.00077 | 84 ft | 18 kts | 239° |
| 2026-05-07 03:06 | 14.49973 | 121.00066 | 84 ft | 0 kts | 239° |
| 2026-05-07 03:07 | 14.49960 | 121.00045 | 83 ft | 7 kts | 239° |
| 2026-05-07 03:07 | 14.49953 | 121.00032 | 86 ft | 0 kts | 239° |
| 2026-05-07 03:08 | 14.49952 | 121.00030 | 81 ft | 2 kts | 239° |
| 2026-05-07 03:08 | 14.49933 | 120.99998 | 86 ft | 0 kts | 239° |
| 2026-05-07 03:08 | 14.49895 | 120.99969 | 84 ft | 12 kts | 190° |
| 2026-05-07 03:08 | 14.49885 | 120.99969 | 83 ft | 0 kts | 176° |
| 2026-05-07 03:09 | 14.49853 | 120.99977 | 85 ft | 11 kts | 162° |
| 2026-05-07 03:09 | 14.49809 | 121.00052 | 84 ft | 0 kts | 57° |
| 2026-05-07 03:10 | 14.49814 | 121.00061 | 84 ft | 0 kts | 57° |
| 2026-05-07 03:10 | 14.49823 | 121.00074 | 84 ft | 8 kts | 57° |
| 2026-05-07 03:10 | 14.49875 | 121.00159 | 83 ft | 4 kts | 58° |
| 2026-05-07 03:11 | 14.49884 | 121.00174 | 80 ft | 10 kts | 58° |
| 2026-05-07 03:11 | 14.50048 | 121.00481 | 63 ft | 92 kts | 60° |
| 2026-05-07 03:12 | 14.50508 | 121.01317 | 69 ft | 169 kts | 61° |
| 2026-05-07 03:12 | 14.51107 | 121.02333 | 1038 ft | 163 kts | 59° |
| 2026-05-07 03:12 | 14.51689 | 121.03367 | 2140 ft | 170 kts | 62° |
| 2026-05-07 03:12 | 14.52292 | 121.04482 | 3072 ft | 186 kts | 62° |
| 2026-05-07 03:13 | 14.52962 | 121.05708 | 3858 ft | 206 kts | 62° |
| 2026-05-07 03:13 | 14.53702 | 121.07057 | 4567 ft | 229 kts | 62° |
| 2026-05-07 03:13 | 14.54527 | 121.08553 | 5304 ft | 245 kts | 61° |
| 2026-05-07 03:13 | 14.55415 | 121.10150 | 5805 ft | 272 kts | 61° |
| 2026-05-07 03:14 | 14.56497 | 121.11926 | 5533 ft | 308 kts | 51° |
| 2026-05-07 03:14 | 14.58284 | 121.13400 | 5180 ft | 352 kts | 29° |